Capitol Logistics 432


KMIA
Miami International Airport
Miami, Florida, US
KBNA
Nashville International Airport
Nashville, Tennessee, US

Activity Log

Date Flight Route Aircraft Duration
06/23/2019 CPX432 WINCO2 WINCO CHRRI Q118 ATL WESSN JAGIR SWFFT2 B752 2h 02m
06/08/2019 CPX432 WINCO2 WINCO CHRRI Q118 ATL WESSN JAGIR SWFFT2 B752 2h 02m
06/05/2019 CPX432 WINCO2 WINCO CHRRI ATL WESSN JAGIR SWFFT2 B752 2h 25m
02/11/2019 CPX432 WINCO2 WINCO CHRRI Q118 ATL WESSN JAGIR SWFFT2 B752 2h 02m

Route Details

Aircraft Information
Primary: Boeing 757-200SF
Backup: Boeing 737-800BCF
Route Data
Distance: 702nm
Sched. Duration: 2h 04m
Avg. Duration: 2h 08m (+3m)
Times Flown: 4
Recm'd Route: WINCO2 WINCO CHRRI Q118 ATL WESSN JAGIR SWFFT2
Planned Altitude: 38,000ft
Origin Wx: KMIA 290353Z 09009KT 10SM FEW022 BKN250 28/23 A3007 RMK AO2 SLP182 T02780233
Dest. Wx: KBNA 290353Z 19003KT 10SM OVC110 19/17 A3000 RMK AO2 SLP153 T01940167
Notes:

Financial History
Total Freight: 221,638lbs
Average Load: 55,410lbs/flt
Fuel Used: 67,973lbs
Avg. Fuel Used: 16,993lbs/flt
Fuel Expense: $83,607
Avg. Fuel Expense: $20,902
Avg. Fuel Cost: $1.23/lbs
Total Gross Income: $290,346
Pilot Pay: $596
Total Expenses: $31,565
Total Revenue: $173,171
Average Revenue: $72,586.45